createdAt,value
2022-11-17T00:01:25.225Z,8.00
2022-11-17T00:03:53.352Z,8.00
2022-11-17T00:06:23.267Z,8.00
2022-11-17T00:08:53.267Z,8.00
2022-11-17T00:11:21.604Z,8.00
2022-11-17T00:14:07.575Z,8.00
2022-11-17T00:16:35.813Z,8.00
2022-11-17T00:19:21.847Z,8.00
2022-11-17T00:21:53.716Z,8.00
2022-11-17T00:24:23.976Z,8.00
2022-11-17T00:27:04.100Z,8.00
2022-11-17T00:29:37.365Z,8.00
2022-11-17T00:32:24.728Z,8.00
2022-11-17T00:34:53.063Z,8.00
2022-11-17T00:37:22.674Z,8.00
2022-11-17T00:39:54.095Z,8.00
2022-11-17T00:42:24.645Z,8.10
2022-11-17T00:44:53.402Z,8.00
2022-11-17T00:47:21.539Z,8.10
2022-11-17T00:49:50.160Z,8.00
2022-11-17T00:52:18.288Z,8.10
2022-11-17T00:54:48.561Z,8.10
2022-11-17T00:57:16.796Z,8.10
2022-11-17T00:59:44.839Z,8.10
2022-11-17T01:02:13.286Z,8.00
2022-11-17T01:04:41.348Z,8.00
2022-11-17T01:07:09.602Z,8.00
2022-11-17T01:09:37.728Z,8.10
2022-11-17T01:12:07.746Z,8.10
2022-11-17T01:14:36.013Z,8.10
2022-11-17T01:17:04.336Z,8.10
2022-11-17T01:19:33.000Z,8.10
2022-11-17T01:22:01.121Z,8.00
2022-11-17T01:24:29.905Z,8.10
2022-11-17T01:26:58.154Z,8.00
2022-11-17T01:29:27.795Z,7.90
2022-11-17T01:31:55.935Z,8.00
2022-11-17T01:34:24.447Z,8.00
2022-11-17T01:37:09.910Z,8.00
2022-11-17T01:39:38.233Z,8.00
2022-11-17T01:42:12.664Z,7.90
2022-11-17T01:44:56.930Z,7.90
2022-11-17T01:47:27.506Z,7.80
2022-11-17T01:49:57.382Z,7.70
2022-11-17T01:52:25.868Z,7.50
2022-11-17T01:54:54.834Z,7.40
2022-11-17T01:57:26.141Z,7.40
2022-11-17T01:59:57.664Z,7.50
2022-11-17T02:02:26.336Z,7.60
2022-11-17T02:04:56.468Z,7.60
2022-11-17T02:07:26.657Z,7.70
2022-11-17T02:09:55.648Z,7.70
2022-11-17T02:12:25.837Z,7.80
2022-11-17T02:14:54.599Z,7.90
2022-11-17T02:17:25.641Z,7.90
2022-11-17T02:19:56.235Z,8.00
2022-11-17T02:22:34.130Z,8.00
2022-11-17T02:25:21.750Z,8.00
2022-11-17T02:27:59.798Z,8.00
2022-11-17T02:30:31.777Z,8.00
2022-11-17T02:33:03.848Z,8.00
2022-11-17T02:35:38.727Z,8.00
2022-11-17T02:38:12.486Z,7.90
2022-11-17T02:40:43.168Z,7.90
2022-11-17T02:43:32.630Z,7.90
2022-11-17T02:46:03.933Z,7.90
2022-11-17T02:48:34.059Z,7.90
2022-11-17T02:51:02.999Z,8.00
2022-11-17T02:53:31.833Z,8.00
2022-11-17T02:56:01.389Z,8.00
2022-11-17T02:58:30.955Z,8.00
2022-11-17T03:01:07.842Z,8.00
2022-11-17T03:03:45.629Z,7.90
2022-11-17T03:06:20.667Z,7.80
2022-11-17T03:08:52.107Z,7.70
2022-11-17T03:11:23.588Z,7.60
2022-11-17T03:13:57.904Z,7.50
2022-11-17T03:16:27.536Z,7.40
2022-11-17T03:19:02.033Z,7.40
2022-11-17T03:21:32.914Z,7.40
2022-11-17T03:24:04.015Z,7.10
2022-11-17T03:26:33.780Z,7.00
2022-11-17T03:29:04.667Z,6.80
2022-11-17T03:31:33.503Z,6.70
2022-11-17T03:34:02.014Z,6.80
2022-11-17T03:36:33.104Z,6.60
2022-11-17T03:39:02.949Z,6.60
2022-11-17T03:41:33.089Z,6.60
2022-11-17T03:44:03.534Z,6.60
2022-11-17T03:46:35.044Z,6.70
2022-11-17T03:49:07.500Z,6.80
2022-11-17T03:51:36.324Z,6.90
2022-11-17T03:54:04.609Z,7.00
2022-11-17T03:56:36.972Z,7.10
2022-11-17T03:59:09.397Z,7.20
2022-11-17T04:01:38.120Z,7.20
2022-11-17T04:04:06.409Z,7.30
2022-11-17T04:06:35.009Z,7.30
2022-11-17T04:09:03.081Z,7.40
2022-11-17T04:11:49.652Z,7.50
2022-11-17T04:14:36.280Z,7.50
2022-11-17T04:17:05.067Z,7.60
2022-11-17T04:19:33.220Z,7.60
2022-11-17T04:22:01.565Z,7.60
2022-11-17T04:24:30.229Z,7.70
2022-11-17T04:27:15.927Z,7.70
2022-11-17T04:29:45.459Z,7.70
2022-11-17T04:32:14.056Z,7.80
2022-11-17T04:34:42.591Z,7.80
2022-11-17T04:37:17.674Z,7.80
2022-11-17T04:39:46.398Z,7.90
2022-11-17T04:42:13.719Z,7.90
2022-11-17T04:44:43.226Z,7.90
2022-11-17T04:47:12.700Z,7.90
2022-11-17T04:49:41.256Z,7.90
2022-11-17T04:52:09.435Z,7.90
2022-11-17T04:54:38.046Z,7.90
2022-11-17T04:57:06.975Z,7.90
2022-11-17T04:59:35.998Z,7.90
2022-11-17T05:02:06.084Z,7.90
2022-11-17T05:04:54.148Z,8.00
2022-11-17T05:07:22.493Z,8.00
2022-11-17T05:09:51.137Z,8.00
2022-11-17T05:12:36.624Z,8.00
2022-11-17T05:15:05.632Z,7.90
2022-11-17T05:17:32.860Z,7.80
2022-11-17T05:20:02.481Z,7.50
2022-11-17T05:22:50.174Z,7.40
2022-11-17T05:25:18.231Z,7.30
2022-11-17T05:27:46.934Z,7.30
2022-11-17T05:30:15.472Z,7.30
2022-11-17T05:32:43.916Z,7.40
2022-11-17T05:35:13.409Z,7.50
2022-11-17T05:37:41.983Z,7.40
2022-11-17T05:40:10.579Z,7.40
2022-11-17T05:42:39.030Z,7.20
2022-11-17T05:45:08.161Z,7.20
2022-11-17T05:47:36.394Z,7.10
2022-11-17T05:50:04.889Z,7.10
2022-11-17T05:52:34.437Z,7.20
2022-11-17T05:55:03.210Z,7.20
2022-11-17T05:57:32.520Z,7.20
2022-11-17T06:00:06.728Z,7.30
2022-11-17T06:02:45.478Z,7.20
2022-11-17T06:05:19.806Z,7.20
2022-11-17T06:07:52.996Z,7.10
2022-11-17T06:10:24.951Z,7.20
2022-11-17T06:12:53.421Z,7.30
2022-11-17T06:15:21.494Z,7.30
2022-11-17T06:17:51.841Z,7.40
2022-11-17T06:20:22.889Z,7.50
2022-11-17T06:22:52.452Z,7.50
2022-11-17T06:25:21.933Z,7.60
2022-11-17T06:27:50.537Z,7.50
2022-11-17T06:30:19.543Z,7.60
2022-11-17T06:32:49.931Z,7.60
2022-11-17T06:35:18.948Z,7.60
2022-11-17T06:37:47.042Z,7.60
2022-11-17T06:40:17.310Z,7.60
2022-11-17T06:43:02.940Z,7.50
2022-11-17T06:45:33.802Z,7.40
2022-11-17T06:48:02.118Z,7.20
2022-11-17T06:50:30.245Z,7.10
2022-11-17T06:52:59.436Z,7.10
2022-11-17T06:55:29.170Z,7.10
2022-11-17T06:58:01.560Z,7.20
2022-11-17T07:00:30.266Z,7.20
2022-11-17T07:03:01.783Z,7.30
2022-11-17T07:05:30.010Z,7.40
2022-11-17T07:07:59.087Z,7.40
2022-11-17T07:10:27.539Z,7.40
2022-11-17T07:12:57.256Z,7.40
2022-11-17T07:15:26.020Z,7.40
2022-11-17T07:17:54.255Z,7.50
2022-11-17T07:20:23.142Z,7.60
2022-11-17T07:22:51.321Z,7.60
2022-11-17T07:25:22.385Z,7.70
2022-11-17T07:27:59.945Z,7.70
2022-11-17T07:30:29.087Z,7.70
2022-11-17T07:32:59.345Z,7.80
2022-11-17T07:35:28.644Z,7.80
2022-11-17T07:38:01.291Z,7.90
2022-11-17T07:40:30.107Z,7.80
2022-11-17T07:42:59.606Z,7.80
2022-11-17T07:45:34.291Z,7.80
2022-11-17T07:48:04.838Z,7.90
2022-11-17T07:50:34.176Z,8.00
2022-11-17T07:53:02.237Z,8.00
2022-11-17T07:55:30.528Z,8.10
2022-11-17T07:58:01.446Z,8.10
2022-11-17T08:00:30.533Z,8.10
2022-11-17T08:03:01.742Z,8.10
2022-11-17T08:05:30.762Z,8.10
2022-11-17T08:08:00.502Z,8.10
2022-11-17T08:10:31.195Z,8.10
2022-11-17T08:13:02.007Z,7.90
2022-11-17T08:15:30.376Z,7.90
2022-11-17T08:17:59.726Z,7.80
2022-11-17T08:20:29.159Z,7.90
2022-11-17T08:22:57.965Z,7.60
2022-11-17T08:25:27.509Z,7.40
2022-11-17T08:27:56.237Z,7.30
2022-11-17T08:30:26.627Z,7.40
2022-11-17T08:32:55.164Z,7.40
2022-11-17T08:35:25.513Z,7.40
2022-11-17T08:37:53.636Z,7.50
2022-11-17T08:40:22.638Z,7.70
2022-11-17T08:43:00.391Z,7.90
2022-11-17T08:45:30.861Z,7.90
2022-11-17T08:47:58.968Z,7.90
2022-11-17T08:50:27.849Z,7.90
2022-11-17T08:52:55.905Z,7.90
2022-11-17T08:55:26.224Z,8.00
2022-11-17T08:57:58.172Z,8.10
2022-11-17T09:00:26.315Z,8.00
2022-11-17T09:02:56.042Z,8.10
2022-11-17T09:05:25.038Z,8.20
2022-11-17T09:07:53.777Z,8.30
2022-11-17T09:10:22.154Z,8.40
2022-11-17T09:12:50.914Z,8.50
2022-11-17T09:15:19.082Z,8.50
2022-11-17T09:17:48.259Z,8.60
2022-11-17T09:20:18.544Z,8.70
2022-11-17T09:22:47.216Z,8.80
2022-11-17T09:25:15.716Z,8.90
2022-11-17T09:27:44.080Z,8.90
2022-11-17T09:30:12.538Z,8.90
2022-11-17T09:32:40.930Z,9.00
2022-11-17T09:35:09.499Z,9.10
2022-11-17T09:37:39.086Z,9.20
2022-11-17T09:40:08.379Z,9.30
2022-11-17T09:42:39.462Z,9.40
2022-11-17T09:45:10.042Z,9.50
2022-11-17T09:47:41.220Z,9.70
2022-11-17T09:50:17.189Z,9.90
2022-11-17T09:52:51.975Z,10.00
2022-11-17T09:55:29.719Z,10.10
2022-11-17T09:58:09.779Z,10.30
2022-11-17T10:00:40.004Z,10.70
2022-11-17T10:03:11.743Z,11.00
2022-11-17T10:05:40.444Z,11.10
2022-11-17T10:08:12.974Z,11.30
2022-11-17T10:10:43.997Z,11.40
2022-11-17T10:13:16.590Z,11.50
2022-11-17T10:15:48.100Z,11.60
2022-11-17T10:18:16.875Z,11.70
2022-11-17T10:20:45.703Z,12.20
2022-11-17T10:23:16.520Z,12.70
2022-11-17T10:25:45.135Z,12.60
2022-11-17T10:28:24.446Z,12.50
2022-11-17T10:30:56.771Z,12.30
2022-11-17T10:33:34.517Z,12.10
2022-11-17T10:36:03.461Z,12.10
2022-11-17T10:38:33.888Z,12.10
2022-11-17T10:41:03.993Z,12.10
2022-11-17T10:43:35.085Z,12.20
2022-11-17T10:46:05.519Z,12.30
2022-11-17T10:48:38.289Z,12.30
2022-11-17T10:51:09.234Z,12.50
2022-11-17T10:53:46.719Z,13.10
2022-11-17T10:56:16.749Z,14.10
2022-11-17T10:59:13.547Z,14.40
2022-11-17T11:01:42.905Z,14.20
2022-11-17T11:04:27.027Z,14.10
2022-11-17T11:07:08.534Z,14.00
2022-11-17T11:09:43.914Z,13.90
2022-11-17T11:12:14.400Z,13.90
2022-11-17T11:14:45.873Z,14.10
2022-11-17T11:17:15.599Z,14.30
2022-11-17T11:19:47.499Z,14.30
2022-11-17T11:22:27.414Z,14.40
2022-11-17T11:25:04.033Z,14.30
2022-11-17T11:27:39.304Z,14.10
2022-11-17T11:30:11.384Z,14.00
2022-11-17T11:32:43.515Z,13.80
2022-11-17T11:35:35.310Z,13.60
2022-11-17T11:38:12.120Z,13.40
2022-11-17T11:40:42.859Z,13.30
2022-11-17T11:43:20.685Z,13.10
2022-11-17T11:45:51.917Z,13.00
2022-11-17T11:48:23.627Z,12.90
2022-11-17T11:50:57.661Z,12.90
2022-11-17T11:53:35.373Z,12.80
2022-11-17T11:56:15.401Z,12.80
2022-11-17T11:58:45.919Z,12.80
2022-11-17T12:01:17.178Z,12.70
2022-11-17T12:03:49.256Z,12.90
2022-11-17T12:06:40.376Z,13.10
2022-11-17T12:09:29.904Z,13.30
2022-11-17T12:12:03.296Z,13.30
2022-11-17T12:14:32.009Z,13.20
2022-11-17T12:17:04.911Z,13.00
2022-11-17T12:19:57.147Z,13.00
2022-11-17T12:22:44.927Z,13.20
2022-11-17T12:25:17.974Z,13.50
2022-11-17T12:27:48.856Z,13.70
2022-11-17T12:30:36.697Z,14.00
2022-11-17T12:33:06.723Z,14.00
2022-11-17T12:35:35.667Z,14.20
2022-11-17T12:38:22.558Z,14.20
2022-11-17T12:40:51.126Z,14.20
2022-11-17T12:43:25.430Z,14.20
2022-11-17T12:46:14.224Z,14.40
2022-11-17T12:48:49.941Z,14.50
2022-11-17T12:51:26.770Z,14.80
2022-11-17T12:54:01.868Z,14.80
2022-11-17T12:56:48.274Z,14.60
2022-11-17T12:59:42.289Z,14.60
2022-11-17T13:02:20.009Z,15.20
2022-11-17T13:04:51.547Z,16.10
2022-11-17T13:07:21.480Z,16.20
2022-11-17T13:09:53.822Z,16.20
2022-11-17T13:12:23.020Z,15.80
2022-11-17T13:14:57.510Z,15.30
2022-11-17T13:17:29.524Z,15.00
2022-11-17T13:20:02.375Z,14.50
2022-11-17T13:22:39.022Z,14.00
2022-11-17T13:25:15.442Z,13.70
2022-11-17T13:27:54.946Z,13.40
2022-11-17T13:30:27.449Z,13.40
2022-11-17T13:32:57.639Z,13.40
2022-11-17T13:35:27.008Z,13.30
2022-11-17T13:38:02.060Z,13.40
2022-11-17T13:40:31.924Z,13.60
2022-11-17T13:43:00.741Z,13.70
2022-11-17T13:45:29.236Z,13.80
2022-11-17T13:48:00.352Z,13.90
2022-11-17T13:50:37.095Z,13.90
2022-11-17T13:53:07.006Z,13.90
2022-11-17T13:55:36.695Z,13.90
2022-11-17T13:58:06.381Z,14.00
2022-11-17T14:00:35.153Z,14.10
2022-11-17T14:03:06.211Z,14.10
2022-11-17T14:05:34.751Z,14.20
2022-11-17T14:08:12.725Z,14.30
2022-11-17T14:10:41.020Z,14.40
2022-11-17T14:13:30.015Z,14.40
2022-11-17T14:16:00.041Z,14.40
2022-11-17T14:18:34.326Z,14.40
2022-11-17T14:21:07.418Z,14.20
2022-11-17T14:23:36.119Z,14.20
2022-11-17T14:26:04.676Z,14.30
2022-11-17T14:28:34.233Z,14.20
2022-11-17T14:31:02.316Z,14.20
2022-11-17T14:33:30.908Z,14.20
2022-11-17T14:36:00.674Z,14.00
2022-11-17T14:38:29.227Z,13.90
2022-11-17T14:40:57.431Z,13.90
2022-11-17T14:43:26.144Z,13.80
2022-11-17T14:45:54.362Z,13.70
2022-11-17T14:48:23.009Z,13.50
2022-11-17T14:50:56.655Z,13.40
2022-11-17T14:53:26.535Z,13.40
2022-11-17T14:55:55.797Z,13.40
2022-11-17T14:58:24.117Z,13.30
2022-11-17T15:00:53.426Z,13.20
2022-11-17T15:03:21.987Z,13.20
2022-11-17T15:05:50.552Z,13.20
2022-11-17T15:08:18.711Z,13.10
2022-11-17T15:10:48.425Z,13.20
2022-11-17T15:13:17.057Z,13.30
2022-11-17T15:15:45.642Z,13.30
2022-11-17T15:18:14.672Z,13.30
2022-11-17T15:20:42.923Z,13.30
2022-11-17T15:23:11.313Z,13.30
2022-11-17T15:25:39.425Z,13.20
2022-11-17T15:28:12.622Z,13.20
2022-11-17T15:30:43.056Z,13.10
2022-11-17T15:33:11.653Z,13.00
2022-11-17T15:35:39.825Z,13.00
2022-11-17T15:38:08.690Z,12.90
2022-11-17T15:40:36.819Z,12.80
2022-11-17T15:43:05.992Z,12.80
2022-11-17T15:45:35.839Z,12.80
2022-11-17T15:48:05.395Z,12.80
2022-11-17T15:50:33.460Z,12.70
2022-11-17T15:53:04.479Z,12.70
2022-11-17T15:55:35.251Z,12.60
2022-11-17T15:58:03.473Z,12.30
2022-11-17T16:00:35.584Z,11.90
2022-11-17T16:03:03.777Z,11.80
2022-11-17T16:05:32.338Z,11.60
2022-11-17T16:08:00.543Z,11.50
2022-11-17T16:10:28.748Z,11.50
2022-11-17T16:12:57.432Z,11.60
2022-11-17T16:15:25.884Z,11.50
2022-11-17T16:17:55.428Z,11.60
2022-11-17T16:20:23.884Z,11.50
2022-11-17T16:22:51.993Z,11.60
2022-11-17T16:25:20.330Z,11.70
2022-11-17T16:27:49.127Z,11.50
2022-11-17T16:30:17.694Z,11.20
2022-11-17T16:32:45.910Z,11.00
2022-11-17T16:35:15.573Z,11.00
2022-11-17T16:37:44.636Z,10.90
2022-11-17T16:40:13.203Z,11.00
2022-11-17T16:42:43.787Z,10.90
2022-11-17T16:45:11.967Z,11.00
2022-11-17T16:47:40.716Z,11.10
2022-11-17T16:50:09.785Z,11.30
2022-11-17T16:52:40.038Z,11.40
2022-11-17T16:55:09.015Z,11.40
2022-11-17T16:57:37.623Z,11.50
2022-11-17T17:00:06.911Z,11.50
2022-11-17T17:02:36.934Z,11.50
2022-11-17T17:05:05.609Z,11.50
2022-11-17T17:07:33.786Z,11.50
2022-11-17T17:10:04.398Z,11.40
2022-11-17T17:12:34.389Z,11.50
2022-11-17T17:15:04.465Z,11.50
2022-11-17T17:17:32.652Z,11.50
2022-11-17T17:20:01.212Z,11.40
2022-11-17T17:22:29.394Z,11.50
2022-11-17T17:24:57.860Z,11.60
2022-11-17T17:27:27.280Z,11.60
2022-11-17T17:29:56.987Z,11.60
2022-11-17T17:32:25.838Z,11.50
2022-11-17T17:34:54.265Z,11.40
2022-11-17T17:37:24.699Z,11.30
2022-11-17T17:40:02.306Z,11.30
2022-11-17T17:42:33.005Z,11.20
2022-11-17T17:45:01.152Z,11.10
2022-11-17T17:47:29.543Z,11.10
2022-11-17T17:50:00.885Z,11.10
2022-11-17T17:52:31.609Z,11.20
2022-11-17T17:54:59.806Z,11.10
2022-11-17T17:57:32.791Z,11.10
2022-11-17T18:00:03.739Z,11.10
2022-11-17T18:02:34.700Z,11.10
2022-11-17T18:05:04.720Z,11.10
2022-11-17T18:07:33.299Z,11.10
2022-11-17T18:10:01.420Z,11.00
2022-11-17T18:12:31.871Z,10.90
2022-11-17T18:14:59.932Z,10.90
2022-11-17T18:17:30.099Z,10.90
2022-11-17T18:19:58.592Z,10.90
2022-11-17T18:22:26.921Z,10.90
2022-11-17T18:24:58.319Z,10.70
2022-11-17T18:27:26.995Z,10.30
2022-11-17T18:29:55.723Z,10.10
2022-11-17T18:32:23.801Z,10.10
2022-11-17T18:34:54.113Z,10.20
2022-11-17T18:37:22.335Z,10.00
2022-11-17T18:39:50.922Z,9.80
2022-11-17T18:42:18.999Z,9.70
2022-11-17T18:44:47.761Z,9.70
2022-11-17T18:47:15.824Z,9.70
2022-11-17T18:49:44.407Z,9.70
2022-11-17T18:52:13.884Z,9.60
2022-11-17T18:54:42.375Z,9.50
2022-11-17T18:57:10.450Z,9.50
2022-11-17T18:59:38.843Z,9.40
2022-11-17T19:02:07.190Z,9.40
2022-11-17T19:04:35.843Z,9.30
2022-11-17T19:07:05.665Z,9.30
2022-11-17T19:09:35.099Z,9.50
2022-11-17T19:12:03.209Z,9.60
2022-11-17T19:14:31.278Z,9.70
2022-11-17T19:16:59.603Z,9.80
2022-11-17T19:19:27.691Z,9.90
2022-11-17T19:21:56.230Z,9.90
2022-11-17T19:24:24.623Z,9.70
2022-11-17T19:26:54.052Z,9.70
2022-11-17T19:29:22.950Z,9.70
2022-11-17T19:31:52.442Z,9.50
2022-11-17T19:34:22.445Z,9.50
2022-11-17T19:36:50.496Z,9.30
2022-11-17T19:39:24.829Z,9.20
2022-11-17T19:42:08.615Z,9.00
2022-11-17T19:44:37.131Z,9.00
2022-11-17T19:47:05.163Z,8.90
2022-11-17T19:49:35.494Z,8.90
2022-11-17T19:52:03.620Z,8.90
2022-11-17T19:54:31.976Z,8.90
2022-11-17T19:57:00.227Z,8.80
2022-11-17T19:59:29.705Z,8.90
2022-11-17T20:01:58.011Z,8.90
2022-11-17T20:04:26.079Z,9.10
2022-11-17T20:06:57.194Z,9.20
2022-11-17T20:09:25.579Z,9.20
2022-11-17T20:11:54.264Z,9.30
2022-11-17T20:14:22.338Z,9.40
2022-11-17T20:16:51.983Z,9.30
2022-11-17T20:19:22.098Z,9.40
2022-11-17T20:21:50.261Z,9.40
2022-11-17T20:24:30.581Z,9.30
2022-11-17T20:27:00.032Z,9.30
2022-11-17T20:29:30.083Z,9.20
2022-11-17T20:31:59.494Z,9.10
2022-11-17T20:34:28.239Z,9.10
2022-11-17T20:36:56.316Z,9.20
2022-11-17T20:39:24.907Z,9.20
2022-11-17T20:41:52.975Z,9.20
2022-11-17T20:44:29.868Z,9.30
2022-11-17T20:46:59.380Z,9.30
2022-11-17T20:49:29.204Z,9.40
2022-11-17T20:51:57.257Z,9.40
2022-11-17T20:54:25.496Z,9.40
2022-11-17T20:56:53.756Z,9.30
2022-11-17T20:59:22.347Z,9.30
2022-11-17T21:01:51.171Z,9.30
2022-11-17T21:04:20.554Z,9.20
2022-11-17T21:06:49.053Z,9.20
2022-11-17T21:09:17.324Z,9.10
2022-11-17T21:11:58.170Z,9.10
2022-11-17T21:14:26.997Z,9.20
2022-11-17T21:16:56.077Z,9.30
2022-11-17T21:19:25.751Z,9.40
2022-11-17T21:21:54.461Z,9.40
2022-11-17T21:24:23.066Z,9.50
2022-11-17T21:26:51.350Z,9.60
2022-11-17T21:29:20.130Z,9.70
2022-11-17T21:31:48.336Z,9.80
2022-11-17T21:34:17.503Z,9.90
2022-11-17T21:36:47.503Z,10.10
2022-11-17T21:39:18.672Z,10.10
2022-11-17T21:41:47.363Z,10.20
2022-11-17T21:44:15.375Z,10.30
2022-11-17T21:46:43.807Z,10.30
2022-11-17T21:49:11.832Z,10.40
2022-11-17T21:51:40.130Z,10.40
2022-11-17T21:54:10.758Z,10.50
2022-11-17T21:56:40.495Z,10.50
2022-11-17T21:59:11.089Z,10.50
2022-11-17T22:01:39.974Z,10.50
2022-11-17T22:04:08.016Z,10.50
2022-11-17T22:06:38.915Z,10.50
2022-11-17T22:09:07.091Z,10.60
2022-11-17T22:11:38.471Z,10.60
2022-11-17T22:14:08.754Z,10.50
2022-11-17T22:16:39.655Z,10.60
2022-11-17T22:19:09.094Z,10.60
2022-11-17T22:21:38.413Z,10.60
2022-11-17T22:24:07.116Z,10.60
2022-11-17T22:26:38.530Z,10.60
2022-11-17T22:29:07.399Z,10.60
2022-11-17T22:31:35.482Z,10.60
2022-11-17T22:34:03.885Z,10.60
2022-11-17T22:36:32.243Z,10.60
2022-11-17T22:39:00.853Z,10.60
2022-11-17T22:41:28.963Z,10.50
2022-11-17T22:43:58.898Z,10.40
2022-11-17T22:46:28.297Z,10.30
2022-11-17T22:48:57.442Z,10.30
2022-11-17T22:51:43.114Z,10.30
2022-11-17T22:54:11.793Z,10.20
2022-11-17T22:56:40.171Z,10.10
2022-11-17T22:59:10.182Z,10.00
2022-11-17T23:01:38.487Z,9.90
2022-11-17T23:04:06.860Z,9.90
2022-11-17T23:06:35.592Z,9.80
2022-11-17T23:09:03.701Z,9.80
2022-11-17T23:11:39.531Z,9.80
2022-11-17T23:14:10.109Z,9.70
2022-11-17T23:16:40.086Z,9.60
2022-11-17T23:19:09.654Z,9.50
2022-11-17T23:21:38.348Z,9.50
2022-11-17T23:24:09.355Z,9.30
2022-11-17T23:26:37.750Z,9.20
2022-11-17T23:29:06.421Z,9.10
2022-11-17T23:31:34.538Z,8.90
2022-11-17T23:34:04.669Z,8.90
2022-11-17T23:36:32.962Z,8.90
2022-11-17T23:39:01.085Z,9.00
2022-11-17T23:41:29.366Z,8.90
2022-11-17T23:46:42.012Z,8.60
2022-11-17T23:49:11.746Z,8.50
2022-11-17T23:51:39.816Z,8.60
2022-11-17T23:54:08.164Z,8.60
2022-11-17T23:56:36.758Z,8.50
2022-11-17T23:59:05.003Z,8.50
